Terminal Aerodrome Forecast
Issued by NWS Duluth, MN

Current Version | Previous Version | Text Only | Print | Product List | Glossary On
Versions: 1 2 3 4 5 6 7 8 9 10 11 12 13 14 15 16 17 18 19 20 21 22 23 24 25
000
FTUS43 KDLH 291600 AAC
TAFDLH
TAF AMD
KDLH 291610Z 2916/3012 25012KT 3SM -RA BR OVC006
      TEMPO 2916/2917 3/4SM -SN OVC010
     FM291700 27015KT 6SM -RA SCT009 OVC013
     FM291900 32020G35KT P6SM SCT015 OVC035
     FM300000 30014KT P6SM BKN040=

USA.gov is the U.S. government's official web portal to all federal, state and local government web resources and services.